Time;durP1;ratioP1;P1;durP2;ratioP2;P2;SDS_P1;SDS_P2;PMS_P1;PMS_P2;Temp;Humidity;BMP_temperature;BMP_pressure;BME280_temperature;BME280_humidity;BME280_pressure;Samples;Min_cycle;Max_cycle;Signal;HPM_P1;HPM_P2
2022/10/21 00:02:18;;;;;;;27.77;15.18;;;16.70;99.90;;;;;;4896998;29;20116;-76
2022/10/21 00:04:43;;;;;;;29.55;15.23;;;16.70;99.90;;;;;;4880228;29;20033;-76
2022/10/21 00:07:09;;;;;;;20.52;13.05;;;16.70;99.90;;;;;;4896735;29;20036;-76
2022/10/21 00:09:35;;;;;;;25.20;15.07;;;16.70;99.90;;;;;;4897103;29;20120;-76
2022/10/21 00:12:00;;;;;;;22.60;13.70;;;16.70;99.90;;;;;;4896995;29;20013;-76
2022/10/21 00:14:26;;;;;;;22.58;14.40;;;16.70;99.90;;;;;;4896961;29;20453;-75
2022/10/21 00:16:52;;;;;;;25.15;14.40;;;16.70;99.90;;;;;;4896193;29;20020;-76
2022/10/21 00:19:17;;;;;;;21.23;13.88;;;16.70;99.90;;;;;;4896894;29;20029;-76
2022/10/21 00:21:43;;;;;;;20.08;13.82;;;16.70;99.90;;;;;;4896732;29;20036;-76
2022/10/21 00:24:09;;;;;;;19.77;14.20;;;16.60;99.90;;;;;;4896631;29;20067;-76
2022/10/21 00:26:34;;;;;;;21.02;13.30;;;16.60;99.90;;;;;;4896831;29;20029;-76
2022/10/21 00:29:00;;;;;;;22.95;14.63;;;16.60;99.90;;;;;;4896750;29;20532;-76
2022/10/21 00:31:26;;;;;;;21.55;14.52;;;16.60;99.90;;;;;;4896577;29;20065;-76
2022/10/21 00:33:52;;;;;;;22.98;13.73;;;16.50;99.90;;;;;;4896644;29;20065;-76
2022/10/21 00:36:18;;;;;;;22.48;14.43;;;16.50;99.90;;;;;;4896578;29;20064;-76
2022/10/21 00:38:47;;;;;;;23.15;14.23;;;16.50;99.90;;;;;;4879843;29;20032;-76
2022/10/21 00:41:14;;;;;;;21.48;14.57;;;16.50;99.90;;;;;;4896578;29;20028;-76
2022/10/21 00:43:59;;;;;;;23.92;14.27;;;16.60;99.90;;;;;;4879640;29;20032;-76
2022/10/21 00:46:41;;;;;;;22.20;13.63;;;16.60;99.90;;;;;;4879682;29;20060;-75
2022/10/21 00:49:19;;;;;;;22.27;14.02;;;16.50;99.90;;;;;;4896453;29;20391;-76
2022/10/21 00:51:48;;;;;;;29.73;15.25;;;16.50;99.90;;;;;;4896652;29;20036;-76
2022/10/21 00:54:15;;;;;;;23.33;14.93;;;16.50;99.90;;;;;;4896437;29;20051;-76
2022/10/21 00:56:43;;;;;;;21.17;14.43;;;16.50;99.90;;;;;;4896498;29;20031;-75
2022/10/21 00:59:08;;;;;;;22.42;14.68;;;16.50;99.90;;;;;;4896434;29;20025;-76
2022/10/21 01:01:34;;;;;;;28.45;15.27;;;16.60;99.90;;;;;;4896392;29;20047;-76
2022/10/21 01:04:02;;;;;;;22.67;14.57;;;16.50;99.90;;;;;;4879338;29;20398;-76
2022/10/21 01:06:29;;;;;;;19.15;13.80;;;16.50;99.90;;;;;;4896432;29;20032;-76
2022/10/21 01:08:56;;;;;;;24.52;14.65;;;16.50;99.90;;;;;;4896228;29;20446;-76
2022/10/21 01:11:22;;;;;;;21.27;14.13;;;16.60;99.90;;;;;;4896263;29;20047;-76
2022/10/21 01:14:18;;;;;;;22.67;14.63;;;16.50;99.90;;;;;;4896243;29;20024;-76
2022/10/21 01:17:10;;;;;;;20.83;14.60;;;16.50;99.90;;;;;;4896322;29;20084;-75
2022/10/21 01:20:02;;;;;;;25.33;15.13;;;16.50;99.90;;;;;;4883658;29;20177;-76
2022/10/21 01:22:46;;;;;;;22.90;13.75;;;16.50;99.90;;;;;;4879295;29;20039;-76
2022/10/21 01:25:21;;;;;;;23.58;15.05;;;16.50;99.90;;;;;;4896093;29;20021;-76
2022/10/21 01:28:08;;;;;;;24.92;15.35;;;16.40;99.90;;;;;;4895816;29;20025;-76
2022/10/21 01:30:51;;;;;;;21.85;15.15;;;16.40;99.90;;;;;;4879188;29;20503;-76
2022/10/21 01:33:17;;;;;;;20.33;14.65;;;16.40;99.90;;;;;;4896142;29;20065;-76
2022/10/21 01:35:48;;;;;;;24.58;16.02;;;16.50;99.90;;;;;;4896120;29;20060;-75
2022/10/21 01:38:22;;;;;;;25.23;15.98;;;16.40;99.90;;;;;;4896029;29;20029;-76
2022/10/21 01:40:58;;;;;;;23.33;15.13;;;16.40;99.90;;;;;;4896017;29;20094;-76
2022/10/21 01:43:49;;;;;;;26.08;16.77;;;16.40;99.90;;;;;;4896171;29;20029;-76
2022/10/21 01:46:26;;;;;;;25.23;15.48;;;16.40;99.90;;;;;;4896075;29;20020;-74
2022/10/21 01:48:59;;;;;;;26.20;17.13;;;16.50;99.90;;;;;;4879163;29;20500;-76
2022/10/21 01:51:27;;;;;;;22.85;16.05;;;16.40;99.90;;;;;;4896045;29;20036;-76
2022/10/21 01:54:31;;;;;;;24.90;16.25;;;16.50;99.90;;;;;;4881767;29;20427;-74
2022/10/21 01:56:59;;;;;;;31.15;17.30;;;16.50;99.90;;;;;;4869866;29;20037;-74
2022/10/21 01:59:30;;;;;;;26.60;16.25;;;16.50;99.90;;;;;;4899325;29;20032;-74
2022/10/21 02:02:00;;;;;;;26.00;15.88;;;16.40;99.90;;;;;;4899249;29;20104;-74
2022/10/21 02:04:28;;;;;;;28.70;17.20;;;16.40;99.90;;;;;;4899068;29;20036;-74
2022/10/21 02:06:54;;;;;;;27.08;16.30;;;16.50;99.90;;;;;;4899077;29;20475;-74
2022/10/21 02:09:20;;;;;;;28.08;18.05;;;16.40;99.90;;;;;;4881897;29;20028;-74
2022/10/21 02:11:49;;;;;;;25.23;17.23;;;16.40;99.90;;;;;;4898601;29;20084;-74
2022/10/21 02:14:22;;;;;;;25.42;17.70;;;16.40;99.90;;;;;;4899029;29;20099;-74
2022/10/21 02:16:50;;;;;;;33.35;16.75;;;16.40;99.90;;;;;;4899011;29;20119;-74
2022/10/21 02:19:18;;;;;;;27.00;16.98;;;16.40;99.90;;;;;;4898798;29;20032;-74
2022/10/21 02:21:48;;;;;;;25.73;17.05;;;16.40;99.90;;;;;;4898789;29;20028;-74
2022/10/21 02:24:28;;;;;;;25.88;17.17;;;16.50;99.90;;;;;;4898485;29;20116;-74
2022/10/21 02:26:54;;;;;;;30.02;18.17;;;16.40;99.90;;;;;;4898659;29;20395;-74
2022/10/21 02:29:24;;;;;;;24.40;16.67;;;16.40;99.90;;;;;;4898795;29;20037;-74
2022/10/21 02:32:08;;;;;;;30.33;17.85;;;16.40;99.90;;;;;;4881817;29;20024;-74
2022/10/21 02:34:44;;;;;;;28.67;17.33;;;16.50;99.90;;;;;;4898316;29;20088;-74
2022/10/21 02:37:37;;;;;;;28.88;17.10;;;16.50;99.90;;;;;;4881622;29;20031;-74
2022/10/21 02:40:12;;;;;;;26.50;17.08;;;16.50;99.90;;;;;;4898497;29;20103;-74
2022/10/21 02:42:44;;;;;;;31.27;18.00;;;16.50;99.90;;;;;;4898149;29;20341;-74
2022/10/21 02:45:10;;;;;;;29.15;17.88;;;16.50;99.90;;;;;;4881572;29;20029;-74
2022/10/21 02:47:38;;;;;;;25.85;16.67;;;16.50;99.90;;;;;;4898433;29;20028;-74
2022/10/21 02:50:05;;;;;;;30.52;17.23;;;16.50;99.90;;;;;;4881490;29;20077;-74
2022/10/21 02:52:30;;;;;;;27.45;16.67;;;16.50;99.90;;;;;;4898301;29;20125;-74
2022/10/21 02:54:56;;;;;;;29.33;17.23;;;16.50;99.90;;;;;;4898302;29;20641;-74
2022/10/21 02:57:21;;;;;;;26.35;17.92;;;16.50;99.90;;;;;;4898175;29;20075;-74
2022/10/21 02:59:47;;;;;;;27.88;18.13;;;16.50;99.90;;;;;;4898375;29;20436;-74
2022/10/21 03:02:13;;;;;;;26.58;17.95;;;16.40;99.90;;;;;;4881173;29;20039;-74
2022/10/21 03:04:38;;;;;;;31.75;18.25;;;16.40;99.90;;;;;;4897120;29;20060;-74
2022/10/21 03:07:04;;;;;;;28.00;18.05;;;16.50;99.90;;;;;;4898022;29;20056;-74
2022/10/21 03:09:30;;;;;;;30.23;18.98;;;16.40;99.90;;;;;;4897923;29;20109;-74
2022/10/21 03:11:55;;;;;;;30.40;18.77;;;16.40;99.90;;;;;;4897871;29;20076;-74
2022/10/21 03:14:21;;;;;;;30.83;17.52;;;16.40;99.90;;;;;;4897722;29;20112;-74
2022/10/21 03:16:47;;;;;;;28.88;17.17;;;16.40;99.90;;;;;;4897853;29;20440;-74
2022/10/21 03:19:12;;;;;;;27.95;17.42;;;16.40;99.90;;;;;;4897854;29;20021;-74
2022/10/21 03:21:38;;;;;;;29.83;17.98;;;16.40;99.90;;;;;;4880852;29;20391;-74
2022/10/21 03:24:04;;;;;;;30.55;17.73;;;16.40;99.90;;;;;;4897598;29;20032;-74
2022/10/21 03:26:29;;;;;;;27.70;17.80;;;16.30;99.90;;;;;;4897794;29;20387;-74
2022/10/21 03:28:55;;;;;;;33.88;19.90;;;16.30;99.90;;;;;;4897479;29;20037;-74
2022/10/21 03:31:21;;;;;;;30.85;17.95;;;16.30;99.90;;;;;;4897543;29;20490;-74
2022/10/21 03:33:46;;;;;;;28.30;19.00;;;16.30;99.90;;;;;;4897635;29;20043;-74
2022/10/21 03:36:12;;;;;;;28.15;17.83;;;16.30;99.90;;;;;;4897727;29;20495;-74
2022/10/21 03:38:38;;;;;;;30.05;19.00;;;16.30;99.90;;;;;;4897502;29;20028;-74
2022/10/21 03:41:04;;;;;;;31.63;18.15;;;16.30;99.90;;;;;;4897459;29;20494;-74
2022/10/21 03:43:29;;;;;;;25.35;16.20;;;16.40;99.90;;;;;;4880393;29;20115;-74
2022/10/21 03:45:55;;;;;;;30.13;17.92;;;16.40;99.90;;;;;;4897411;29;20036;-74
2022/10/21 03:48:21;;;;;;;26.63;18.08;;;16.30;99.90;;;;;;4897243;29;20029;-74
2022/10/21 03:50:46;;;;;;;30.48;17.77;;;16.30;99.90;;;;;;4897277;29;20025;-74
2022/10/21 03:53:12;;;;;;;28.50;18.10;;;16.30;99.90;;;;;;4880436;29;20029;-74
2022/10/21 03:55:37;;;;;;;27.60;17.50;;;16.30;99.90;;;;;;4897109;29;20059;-74
2022/10/21 03:58:03;;;;;;;27.52;18.33;;;16.40;99.90;;;;;;4897122;29;20036;-74
2022/10/21 04:00:29;;;;;;;33.42;17.80;;;16.40;99.90;;;;;;4897281;29;20190;-74
2022/10/21 04:02:55;;;;;;;28.83;18.50;;;16.40;99.90;;;;;;4896832;29;20100;-74
2022/10/21 04:05:20;;;;;;;28.92;17.92;;;16.40;99.90;;;;;;4897143;29;20040;-74
2022/10/21 04:07:46;;;;;;;34.42;18.73;;;16.40;99.90;;;;;;4897057;29;20049;-74
2022/10/21 04:10:12;;;;;;;29.80;18.75;;;16.30;99.90;;;;;;4880262;29;20080;-74
2022/10/21 04:12:37;;;;;;;33.75;19.02;;;16.30;99.90;;;;;;4896246;29;20033;-74
2022/10/21 04:15:04;;;;;;;28.60;17.42;;;16.40;99.90;;;;;;4896617;29;20111;-74
2022/10/21 04:17:30;;;;;;;30.50;18.20;;;16.30;99.90;;;;;;4896641;29;20380;-74
2022/10/21 04:19:56;;;;;;;31.52;18.17;;;16.40;99.90;;;;;;4896679;29;20081;-74
2022/10/21 04:22:22;;;;;;;27.00;18.38;;;16.40;99.90;;;;;;4896733;29;20591;-74
2022/10/21 04:24:47;;;;;;;26.55;17.80;;;16.30;99.90;;;;;;4896661;29;20029;-74
2022/10/21 04:27:13;;;;;;;30.75;18.15;;;16.40;99.90;;;;;;4896643;29;20057;-74
2022/10/21 04:29:39;;;;;;;32.17;18.35;;;16.30;99.90;;;;;;4896632;29;20424;-74
2022/10/21 04:32:05;;;;;;;30.08;18.13;;;16.40;99.90;;;;;;4896691;29;20036;-74
2022/10/21 04:34:30;;;;;;;31.40;18.25;;;16.40;99.90;;;;;;4896820;29;20025;-74
2022/10/21 04:36:56;;;;;;;32.75;18.60;;;16.40;99.90;;;;;;4896560;29;20399;-74
2022/10/21 04:39:22;;;;;;;28.70;18.55;;;16.40;99.90;;;;;;4879690;29;20032;-74
2022/10/21 04:41:49;;;;;;;31.20;18.33;;;16.40;99.90;;;;;;4896537;29;20020;-74
2022/10/21 04:44:15;;;;;;;27.65;17.83;;;16.40;99.90;;;;;;4896161;29;20608;-74
2022/10/21 04:46:41;;;;;;;31.65;18.38;;;16.50;99.90;;;;;;4896490;29;20107;-74
2022/10/21 04:49:06;;;;;;;32.38;18.08;;;16.50;99.90;;;;;;4896488;29;20031;-74
2022/10/21 04:51:32;;;;;;;28.75;17.67;;;16.50;99.90;;;;;;4896659;29;20141;-74
2022/10/21 04:53:58;;;;;;;29.70;16.83;;;16.40;99.90;;;;;;4896414;29;20081;-74
2022/10/21 04:56:23;;;;;;;26.35;17.23;;;16.40;99.90;;;;;;4896499;29;20040;-74
2022/10/21 04:58:49;;;;;;;30.70;17.38;;;16.40;99.90;;;;;;4896378;29;20055;-74
2022/10/21 05:01:15;;;;;;;30.55;18.85;;;16.40;99.90;;;;;;4879665;29;20084;-74
2022/10/21 05:03:40;;;;;;;28.80;18.52;;;16.40;99.90;;;;;;4896185;29;20035;-74
2022/10/21 05:06:06;;;;;;;29.17;18.20;;;16.40;99.90;;;;;;4896257;29;20020;-74
2022/10/21 05:08:32;;;;;;;30.27;18.13;;;16.40;99.90;;;;;;4895603;29;20045;-74
2022/10/21 05:10:59;;;;;;;34.38;18.80;;;16.40;99.90;;;;;;4896411;29;20107;-74
2022/10/21 05:13:26;;;;;;;32.42;18.52;;;16.40;99.90;;;;;;4896798;29;20033;-74
2022/10/21 05:15:55;;;;;;;30.55;17.80;;;16.50;99.90;;;;;;4897130;29;20411;-74
2022/10/21 05:18:21;;;;;;;32.15;18.95;;;16.50;99.90;;;;;;4880348;29;20021;-74
2022/10/21 05:20:51;;;;;;;34.00;18.63;;;16.50;99.90;;;;;;4896559;29;20112;-74
2022/10/21 05:23:17;;;;;;;31.52;19.77;;;16.50;99.90;;;;;;4896085;29;20071;-74
2022/10/21 05:25:44;;;;;;;29.65;19.30;;;16.50;99.90;;;;;;4896068;29;20131;-74
2022/10/21 05:28:10;;;;;;;31.15;18.70;;;16.50;99.90;;;;;;4896795;29;20052;-73
2022/10/21 05:30:35;;;;;;;31.40;20.08;;;16.50;99.90;;;;;;4880493;29;20029;-76
2022/10/21 05:33:01;;;;;;;30.40;19.30;;;16.50;99.90;;;;;;4896910;29;20057;-76
2022/10/21 05:35:27;;;;;;;31.13;18.60;;;16.50;99.90;;;;;;4897482;29;20025;-76
2022/10/21 05:37:52;;;;;;;29.00;17.45;;;16.50;99.90;;;;;;4897549;29;20032;-76
2022/10/21 05:40:18;;;;;;;30.67;17.83;;;16.50;99.90;;;;;;4897666;29;20028;-76
2022/10/21 05:42:44;;;;;;;26.95;18.40;;;16.50;99.90;;;;;;4897713;29;20052;-76
2022/10/21 05:45:10;;;;;;;30.10;18.45;;;16.50;99.90;;;;;;4899112;29;20025;-76
2022/10/21 05:47:39;;;;;;;32.75;18.65;;;16.60;99.90;;;;;;4899090;29;20035;-75
2022/10/21 05:50:05;;;;;;;29.98;18.70;;;16.60;99.90;;;;;;4882471;29;20025;-76
2022/10/21 05:52:31;;;;;;;27.92;16.60;;;16.60;99.90;;;;;;4899205;29;20862;-76
2022/10/21 05:54:56;;;;;;;29.15;18.10;;;16.60;99.90;;;;;;4899150;29;20031;-75
2022/10/21 05:57:22;;;;;;;28.90;17.70;;;16.60;99.90;;;;;;4899193;29;20055;-76
2022/10/21 05:59:48;;;;;;;28.70;17.90;;;16.60;99.90;;;;;;4899856;29;20076;-76
2022/10/21 06:02:14;;;;;;;29.00;18.73;;;16.60;99.90;;;;;;4899497;29;20028;-76
2022/10/21 06:04:39;;;;;;;34.83;19.13;;;16.60;99.90;;;;;;4900068;29;20028;-76
2022/10/21 06:07:05;;;;;;;27.90;17.92;;;16.60;99.90;;;;;;4899741;29;20551;-76
2022/10/21 06:09:31;;;;;;;28.48;17.65;;;16.60;99.90;;;;;;4899497;29;20048;-76
2022/10/21 06:11:57;;;;;;;26.83;17.60;;;16.60;99.90;;;;;;4864627;29;20033;-76
2022/10/21 06:14:23;;;;;;;28.40;18.30;;;16.60;99.90;;;;;;4893344;29;20028;-77
2022/10/21 06:16:49;;;;;;;31.02;18.52;;;16.70;99.90;;;;;;4900111;29;20028;-76
2022/10/21 06:19:15;;;;;;;27.90;18.33;;;16.70;99.90;;;;;;4900062;29;20081;-77
2022/10/21 06:21:40;;;;;;;28.55;18.20;;;16.70;99.90;;;;;;4905755;29;20488;-76
2022/10/21 06:24:06;;;;;;;31.25;17.98;;;16.70;99.90;;;;;;4899878;29;20032;-77
2022/10/21 06:26:32;;;;;;;30.23;17.73;;;16.70;99.90;;;;;;4882736;29;20117;-76
2022/10/21 06:28:57;;;;;;;30.75;18.98;;;16.70;99.90;;;;;;4899957;29;20025;-76
2022/10/21 06:31:23;;;;;;;31.65;18.73;;;16.60;99.90;;;;;;4900067;29;20112;-76
2022/10/21 06:33:49;;;;;;;30.20;18.98;;;16.70;99.90;;;;;;4899792;29;20033;-77
2022/10/21 06:36:14;;;;;;;26.00;17.98;;;16.70;99.90;;;;;;4899836;29;20033;-76
2022/10/21 06:38:40;;;;;;;29.80;18.50;;;16.70;99.90;;;;;;4899598;29;20515;-76
2022/10/21 06:41:09;;;;;;;27.85;17.13;;;16.70;99.90;;;;;;4899655;29;20114;-76
2022/10/21 06:43:34;;;;;;;28.23;17.73;;;16.70;99.90;;;;;;4899528;29;20084;-76
2022/10/21 06:46:11;;;;;;;32.63;18.13;;;16.70;99.90;;;;;;4899663;29;20032;-76
2022/10/21 06:48:37;;;;;;;35.80;18.52;;;16.80;99.90;;;;;;4899613;29;20079;-76
2022/10/21 06:51:05;;;;;;;32.03;18.35;;;16.80;99.90;;;;;;4899557;29;20095;-75
2022/10/21 06:53:32;;;;;;;30.33;18.58;;;16.80;99.90;;;;;;4882548;29;20051;-76
2022/10/21 06:56:09;;;;;;;29.90;17.77;;;16.80;99.90;;;;;;4899502;29;20032;-76
2022/10/21 06:58:36;;;;;;;30.20;17.60;;;16.90;99.90;;;;;;4898931;29;20059;-76
2022/10/21 07:01:10;;;;;;;29.40;17.67;;;16.90;99.90;;;;;;4898374;29;20040;-76
2022/10/21 07:03:36;;;;;;;28.63;17.05;;;16.90;99.90;;;;;;4897821;29;20036;-76
2022/10/21 07:06:02;;;;;;;32.08;17.80;;;16.90;99.90;;;;;;4898391;29;20025;-76
2022/10/21 07:08:29;;;;;;;33.47;17.08;;;17.00;99.90;;;;;;4898007;29;20045;-76
2022/10/21 07:10:55;;;;;;;26.35;16.40;;;17.00;99.90;;;;;;4881567;29;20020;-76
2022/10/21 07:13:21;;;;;;;26.90;17.35;;;17.00;99.90;;;;;;4897940;29;20028;-76
2022/10/21 07:15:56;;;;;;;26.77;16.88;;;17.00;99.90;;;;;;4898075;29;20024;-76
2022/10/21 07:18:21;;;;;;;30.27;16.77;;;17.00;99.90;;;;;;4881070;29;20129;-76
2022/10/21 07:20:47;;;;;;;23.60;15.85;;;17.10;99.90;;;;;;4898237;29;20481;-76
2022/10/21 07:23:13;;;;;;;28.33;18.35;;;17.10;99.90;;;;;;4898012;29;20031;-76
2022/10/21 07:25:38;;;;;;;25.90;16.40;;;17.10;99.90;;;;;;4897713;29;20103;-76
2022/10/21 07:28:04;;;;;;;26.55;17.50;;;17.10;99.90;;;;;;4897722;29;20049;-76
2022/10/21 07:30:30;;;;;;;32.80;17.73;;;17.10;99.90;;;;;;4897647;29;20080;-76
2022/10/21 07:32:55;;;;;;;24.15;16.70;;;17.20;99.90;;;;;;4897173;29;20028;-76
2022/10/21 07:35:22;;;;;;;26.55;16.63;;;17.20;99.90;;;;;;4898109;29;20097;-76
2022/10/21 07:37:48;;;;;;;26.90;16.95;;;17.30;99.90;;;;;;4897838;29;20056;-76
2022/10/21 07:40:13;;;;;;;25.58;16.67;;;17.30;99.90;;;;;;4897392;29;20056;-76
2022/10/21 07:42:39;;;;;;;28.80;17.60;;;17.30;99.90;;;;;;4897131;29;20060;-76
2022/10/21 07:45:05;;;;;;;27.13;16.90;;;17.40;99.90;;;;;;4897018;29;20027;-76
2022/10/21 07:47:31;;;;;;;23.67;15.45;;;17.40;99.90;;;;;;4897740;29;20077;-76
2022/10/21 07:49:56;;;;;;;26.20;16.48;;;17.50;99.90;;;;;;4897912;29;20021;-75
2022/10/21 07:52:22;;;;;;;24.70;17.08;;;17.50;99.90;;;;;;4898280;29;20041;-76
2022/10/21 07:54:48;;;;;;;22.77;16.30;;;17.60;99.90;;;;;;4898424;29;20033;-76
2022/10/21 07:57:13;;;;;;;27.08;16.98;;;17.60;99.90;;;;;;4898205;29;20177;-76
2022/10/21 07:59:39;;;;;;;25.13;16.42;;;17.70;99.90;;;;;;4898327;29;20036;-76
2022/10/21 08:02:05;;;;;;;31.48;15.70;;;17.70;99.90;;;;;;4898112;29;20087;-76
2022/10/21 08:04:32;;;;;;;35.60;17.77;;;17.80;99.90;;;;;;4898377;29;20395;-76
2022/10/21 08:06:58;;;;;;;23.33;15.25;;;17.80;99.90;;;;;;4881214;29;20025;-76
2022/10/21 08:09:25;;;;;;;25.13;16.13;;;17.90;99.90;;;;;;4898391;29;20025;-76
2022/10/21 08:11:51;;;;;;;28.33;16.92;;;17.90;99.90;;;;;;4898139;29;20052;-76
2022/10/21 08:14:17;;;;;;;30.10;17.58;;;17.90;99.90;;;;;;4898173;29;20483;-76
2022/10/21 08:16:42;;;;;;;31.08;18.13;;;18.00;99.90;;;;;;4897902;29;20027;-76
2022/10/21 08:19:16;;;;;;;36.08;17.88;;;18.00;99.90;;;;;;4913864;29;20036;-76
2022/10/21 08:21:42;;;;;;;29.58;16.83;;;18.00;99.90;;;;;;4881105;29;20345;-75
2022/10/21 08:24:08;;;;;;;26.38;15.98;;;18.00;99.90;;;;;;4894813;29;20040;-76
2022/10/21 08:26:33;;;;;;;31.83;17.65;;;18.00;99.90;;;;;;4894926;29;20031;-76
2022/10/21 08:29:01;;;;;;;29.50;18.00;;;18.00;99.90;;;;;;4895295;29;20130;-76
2022/10/21 08:31:27;;;;;;;25.90;17.67;;;18.00;99.90;;;;;;4878460;29;20414;-76
2022/10/21 08:33:53;;;;;;;26.90;17.30;;;18.10;99.90;;;;;;4894528;29;20107;-76
2022/10/21 08:36:21;;;;;;;28.25;18.48;;;18.10;99.90;;;;;;4894367;29;20047;-76
2022/10/21 08:38:48;;;;;;;29.80;18.33;;;18.10;99.90;;;;;;4894406;29;20024;-76
2022/10/21 08:41:25;;;;;;;35.78;19.85;;;18.10;99.90;;;;;;4894984;29;20115;-76
2022/10/21 08:43:53;;;;;;;31.05;19.02;;;18.10;99.90;;;;;;4895235;29;20068;-76
2022/10/21 08:46:28;;;;;;;36.58;18.45;;;18.20;99.90;;;;;;4878049;29;20663;-76
2022/10/21 08:49:23;;;;;;;34.22;19.63;;;18.10;99.90;;;;;;4895128;29;20033;-75
2022/10/21 08:52:02;;;;;;;34.00;19.42;;;18.20;99.90;;;;;;4862338;29;20128;-75
2022/10/21 08:55:00;;;;;;;37.40;18.60;;;18.10;99.90;;;;;;4895178;29;20025;-77
2022/10/21 08:57:26;;;;;;;32.97;18.10;;;18.20;99.90;;;;;;4859977;29;20040;-75
2022/10/21 08:59:54;;;;;;;28.60;18.95;;;18.20;99.90;;;;;;4894939;29;20111;-76
2022/10/21 09:02:57;;;;;;;30.25;18.15;;;18.20;99.90;;;;;;4897124;29;20039;-76
2022/10/21 09:05:43;;;;;;;27.23;16.92;;;18.20;99.90;;;;;;4895282;29;20051;-76
2022/10/21 09:08:32;;;;;;;30.30;19.05;;;18.20;99.90;;;;;;4879964;29;20045;-76
2022/10/21 09:11:18;;;;;;;30.35;17.92;;;18.20;99.90;;;;;;4863256;29;20044;-75
2022/10/21 09:14:03;;;;;;;32.78;17.20;;;18.20;99.90;;;;;;4882008;29;20033;-76
2022/10/21 09:17:08;;;;;;;33.15;20.10;;;18.20;99.90;;;;;;4899124;29;20089;-75
2022/10/21 09:19:50;;;;;;;31.95;18.00;;;18.20;99.90;;;;;;4899130;29;20097;-76
2022/10/21 09:22:28;;;;;;;28.13;16.15;;;18.30;99.90;;;;;;4881910;29;20369;-76
2022/10/21 09:25:01;;;;;;;32.38;18.20;;;18.30;99.90;;;;;;4898714;29;20480;-76
2022/10/21 09:27:27;;;;;;;28.65;17.98;;;18.30;99.90;;;;;;4881689;29;20111;-76
2022/10/21 09:29:59;;;;;;;28.02;17.73;;;18.30;99.90;;;;;;4898419;29;20112;-76
2022/10/21 09:32:38;;;;;;;31.10;17.67;;;18.30;99.90;;;;;;4897582;29;20036;-75
2022/10/21 09:35:21;;;;;;;27.25;17.25;;;18.40;99.90;;;;;;4898469;29;20050;-75
2022/10/21 09:38:01;;;;;;;32.25;18.60;;;18.30;99.90;;;;;;4898746;29;20103;-77
2022/10/21 09:40:29;;;;;;;32.60;19.40;;;18.30;99.90;;;;;;4898899;29;20035;-76
2022/10/21 09:42:58;;;;;;;31.67;19.05;;;18.30;99.90;;;;;;4898030;29;20115;-76
2022/10/21 09:45:34;;;;;;;30.55;18.42;;;18.40;99.90;;;;;;4898656;29;20024;-76
2022/10/21 09:48:04;;;;;;;26.58;17.50;;;18.40;99.90;;;;;;4878142;29;20025;-76
2022/10/21 09:50:33;;;;;;;29.98;18.83;;;18.40;99.90;;;;;;4890855;29;20387;-75
2022/10/21 09:53:15;;;;;;;28.67;17.98;;;18.40;99.90;;;;;;4897761;29;20036;-77
2022/10/21 09:55:45;;;;;;;26.63;17.85;;;18.50;99.90;;;;;;4898052;29;20024;-76
2022/10/21 09:58:27;;;;;;;37.67;19.40;;;18.40;99.90;;;;;;4897867;29;20044;-77
2022/10/21 10:00:53;;;;;;;31.95;17.90;;;18.50;99.90;;;;;;4898135;29;20016;-76
2022/10/21 10:03:34;;;;;;;32.40;18.90;;;18.50;99.90;;;;;;4882696;29;20507;-76
2022/10/21 10:06:01;;;;;;;29.17;18.50;;;18.60;99.90;;;;;;4900428;29;20029;-75
2022/10/21 10:08:58;;;;;;;33.55;20.27;;;18.60;99.90;;;;;;4895388;29;20181;-75
2022/10/21 10:11:24;;;;;;;34.35;20.20;;;18.60;99.90;;;;;;4867560;29;20096;-75
2022/10/21 10:13:52;;;;;;;31.83;19.17;;;18.60;99.90;;;;;;4897018;29;20017;-74
2022/10/21 10:16:31;;;;;;;33.35;19.27;;;18.60;99.90;;;;;;4897139;29;20037;-74
2022/10/21 10:19:14;;;;;;;28.92;18.88;;;18.70;99.90;;;;;;4895898;29;20438;-74
2022/10/21 10:21:39;;;;;;;33.00;20.45;;;18.70;99.90;;;;;;4874377;29;20096;-74
2022/10/21 10:24:14;;;;;;;30.42;20.05;;;18.70;99.90;;;;;;4890163;29;20041;-74
2022/10/21 10:26:41;;;;;;;29.42;18.77;;;18.70;99.90;;;;;;4896004;29;20025;-74
2022/10/21 10:29:09;;;;;;;31.63;20.05;;;18.70;99.90;;;;;;4896574;29;20047;-74
2022/10/21 10:31:36;;;;;;;30.63;18.58;;;18.70;99.90;;;;;;4895885;29;20029;-74
2022/10/21 10:34:06;;;;;;;32.40;20.73;;;18.70;99.90;;;;;;4896666;29;20088;-74
2022/10/21 10:36:39;;;;;;;31.65;19.52;;;18.70;99.90;;;;;;4897316;29;20033;-74
2022/10/21 10:39:15;;;;;;;28.85;17.85;;;18.70;99.90;;;;;;4897041;29;20020;-74
2022/10/21 10:41:46;;;;;;;29.30;17.20;;;18.80;99.90;;;;;;4896770;29;20055;-74
2022/10/21 10:44:28;;;;;;;27.67;17.02;;;18.80;99.90;;;;;;4894629;29;20384;-74
2022/10/21 10:46:56;;;;;;;27.25;17.67;;;18.80;99.90;;;;;;4896319;29;20468;-74
2022/10/21 10:49:23;;;;;;;28.83;15.82;;;18.80;99.90;;;;;;4894899;29;20032;-74
2022/10/21 10:52:09;;;;;;;26.30;17.40;;;18.80;99.90;;;;;;4896327;29;20031;-74
2022/10/21 10:54:37;;;;;;;25.45;16.67;;;18.80;99.90;;;;;;4888705;29;20044;-74
2022/10/21 10:57:19;;;;;;;29.95;17.80;;;18.80;99.90;;;;;;4899502;29;20395;-74
2022/10/21 11:00:14;;;;;;;28.05;17.27;;;18.80;99.90;;;;;;4898313;29;20031;-74
2022/10/21 11:02:44;;;;;;;28.83;17.55;;;18.80;99.90;;;;;;4897944;29;20353;-75
2022/10/21 11:05:35;;;;;;;29.92;16.60;;;18.80;99.90;;;;;;4899473;29;20376;-74
2022/10/21 11:08:12;;;;;;;29.60;15.40;;;18.80;99.90;;;;;;4897949;29;20052;-74
2022/10/21 11:11:02;;;;;;;25.90;15.68;;;18.80;99.90;;;;;;4889832;29;20704;-74
2022/10/21 11:13:27;;;;;;;28.67;17.27;;;18.80;99.90;;;;;;4896345;29;20067;-74
2022/10/21 11:16:17;;;;;;;31.55;17.40;;;18.80;99.90;;;;;;4896108;29;20060;-74
2022/10/21 11:19:31;;;;;;;24.85;15.38;;;18.80;99.90;;;;;;4896544;29;20029;-75
2022/10/21 11:22:25;;;;;;;22.42;15.32;;;18.70;99.90;;;;;;4879301;29;20040;-74
2022/10/21 11:24:58;;;;;;;33.47;18.45;;;18.70;99.90;;;;;;4889299;29;20029;-74
2022/10/21 11:27:33;;;;;;;25.90;16.55;;;18.70;99.90;;;;;;4878077;29;20028;-74
2022/10/21 11:30:04;;;;;;;24.83;16.15;;;18.70;99.90;;;;;;4895663;29;20520;-74
2022/10/21 11:32:48;;;;;;;31.92;17.42;;;18.80;99.90;;;;;;4896054;29;20071;-74
2022/10/21 11:35:39;;;;;;;22.70;15.93;;;18.80;99.90;;;;;;4878919;29;20040;-74
2022/10/21 11:38:46;;;;;;;28.13;17.20;;;18.70;99.90;;;;;;4896034;29;20032;-74
2022/10/21 11:41:38;;;;;;;26.33;16.85;;;18.80;99.90;;;;;;4893320;29;20052;-74
2022/10/21 11:44:24;;;;;;;27.05;17.58;;;18.80;99.90;;;;;;4895431;29;20119;-74
2022/10/21 11:46:58;;;;;;;27.48;16.52;;;18.70;99.90;;;;;;4895671;29;20033;-74
2022/10/21 11:49:43;;;;;;;27.58;17.73;;;18.80;99.90;;;;;;4895695;29;20024;-74
2022/10/21 11:52:29;;;;;;;27.73;16.58;;;18.80;99.90;;;;;;4895328;29;20112;-74
2022/10/21 11:55:23;;;;;;;28.77;17.30;;;18.70;99.90;;;;;;4890628;29;20028;-74
2022/10/21 11:57:56;;;;;;;27.63;16.10;;;18.80;99.90;;;;;;4892544;29;20149;-74
2022/10/21 12:00:26;;;;;;;27.00;16.80;;;18.80;99.90;;;;;;4896534;29;20035;-74
2022/10/21 12:03:46;;;;;;;23.55;16.48;;;18.80;99.90;;;;;;4898238;29;20039;-74
2022/10/21 12:06:48;;;;;;;27.67;16.85;;;18.80;99.90;;;;;;4863155;29;20045;-74
2022/10/21 12:09:36;;;;;;;26.75;16.35;;;18.80;99.90;;;;;;4898081;29;20090;-74
2022/10/21 12:12:20;;;;;;;25.33;17.15;;;18.90;99.90;;;;;;4897955;29;20029;-75
2022/10/21 12:14:56;;;;;;;26.83;16.63;;;18.90;99.90;;;;;;4892317;29;20028;-75
2022/10/21 12:17:23;;;;;;;24.85;16.52;;;18.90;99.90;;;;;;4890847;29;20111;-75
2022/10/21 12:20:13;;;;;;;26.17;15.70;;;18.80;99.90;;;;;;4895318;29;20032;-75
2022/10/21 12:22:39;;;;;;;27.05;15.68;;;18.80;99.90;;;;;;4889583;29;20518;-75
2022/10/21 12:25:11;;;;;;;26.27;15.77;;;18.80;99.90;;;;;;4895106;29;20037;-75
2022/10/21 12:28:10;;;;;;;27.00;16.40;;;18.80;99.90;;;;;;4895288;29;20028;-75
2022/10/21 12:30:45;;;;;;;24.25;16.13;;;18.70;99.90;;;;;;4895759;29;20072;-75
2022/10/21 12:33:16;;;;;;;21.95;16.20;;;18.70;99.90;;;;;;4895776;29;20084;-75
2022/10/21 12:35:44;;;;;;;29.35;17.90;;;18.70;99.90;;;;;;4895224;29;20085;-75
2022/10/21 12:38:43;;;;;;;23.77;16.23;;;18.70;99.90;;;;;;4894859;29;20391;-75
2022/10/21 12:41:26;;;;;;;26.35;16.02;;;18.70;99.90;;;;;;4895772;29;20388;-75
2022/10/21 12:44:04;;;;;;;25.52;16.85;;;18.60;99.90;;;;;;4895192;29;20039;-75
2022/10/21 12:46:39;;;;;;;24.02;15.35;;;18.60;99.90;;;;;;4897990;29;20104;-75
2022/10/21 12:49:20;;;;;;;23.30;15.57;;;18.60;99.90;;;;;;4896558;29;20439;-75
2022/10/21 12:51:53;;;;;;;24.95;16.08;;;18.50;99.90;;;;;;4896701;29;20040;-75